CL-SC49 weather

Oficina Victoria Airport
Oficina Victoria, Tarapac√° Region, Chile

Public forecast

Using degrees Celsius for public forecast. Weather courtesy of forecast.io.

METAR (pilot weather report)

Closest report is Diego Aracena Airport, 33.4 nm (61.9 km) WNW. Retrieved 2019/05/24 18:00 UTC (59 minutes ago):

SCDA 241800Z 30007KT 9999 OVC023 17/11 Q1013

TAF (pilot weather forecast)

Closest forecast is Diego Aracena Airport, 33.4 nm (61.9 km) WNW. Retrieved 2019/05/24 18:39 UTC (20 minutes ago):

TAF SCDA 241610Z 2418/2518 29010KT CAVOK TX18/2418Z TN16/2510Z BECMG 2500/2502 20004KT BKN020 BECMG 2504/2506 03004KT OVC022 BECMG 2515/2517 32007KT BKN022